Vue régionale

METAR et TAF

Vendredi 05 mars 2021 à 01h45

Visibilités horizontales observées à différents aéroports. Les observations (METAR) et prévisions aéronautiques (TAF) complètes sont disponibles en cliquant sur l’icône correspondante.

  • Luxemburg (ELLX)

    Taf: TAF ELLX 042300Z 0500/0606 35007KT 9999 BKN020 PROB30 TEMPO 0500/0509 BKN012 BECMG 0511/0513 05012KT=

    Metar: METAR ELLX 050020Z AUTO 36011KT 9999 BKN014/// OVC016/// 03/00 Q1020 NOSIG=

  • Spangdahlem (ETAD)

    Taf: TAF ETAD 042100Z 0421/0603 35009KT 9999 OVC010 620302 QNH3008INS TEMPO 0421/0423 9000 -SHRA BECMG 0512/0513 05010G15KT 9999 FEW030 QNH3029INS BECMG 0520/0521 08010KT 9999 SKC QNH3042INS TX03/0422Z TN00/0519Z LAST NO AMDS AFT 0421=

    Metar: METAR ETAD 042356Z AUTO 34004KT 9999 OVC017 03/01 A3011 RMK AO2 CIG 016 RWY05 SLP197 T00260005 10053 20026 52010 TSNO $=

  • Metz/Nancy (LFJL)

    Taf: TAF LFJL 042300Z 0500/0524 35007KT 9999 FEW015 BKN025 TEMPO 0500/0509 BKN008 BECMG 0510/0512 05010KT TEMPO 0515/0518 05015G25KT BECMG 0519/0521 CAVOK=

    Metar: METAR LFJL 050030Z AUTO 35010KT 9000 BKN012 OVC019 05/03 Q1020 TEMPO BKN008=

  • Saarbrücken/Intl (EDDR)

    Taf: TAF EDDR 042300Z 0500/0524 32005KT 9999 BKN025 TEMPO 0500/0506 BKN009 BECMG 0506/0508 02008KT=

    Metar: METAR EDDR 050020Z 35006KT 310V020 9999 BKN012 04/03 Q1019=

  • Hahn (EDFH)

    Taf: TAF EDFH 042300Z 0500/0524 32008KT 8000 BKN015 TEMPO 0500/0506 4000 -RA BR BKN004 BECMG 0506/0508 02008KT TEMPO 0506/0509 BKN008=

    Metar: METAR EDFH 050020Z 31004KT 280V340 2000 BR BKN003 01/01 Q1019=

  • Ramstein (ETAR)

    Taf: TAF AMD ETAR 042202Z 0422/0524 34009KT 9999 BKN020 OVC030 610256 QNH3000INS TEMPO 0422/0424 8000 -SHRA BKN015 BECMG 0423/0424 01009KT 9999 NSW BKN015 610206 QNH3008INS BECMG 0507/0508 02009KT 9999 BKN030 610306 QNH3015INS BECMG 0515/0516 02009KT 9999 SCT040 QNH3020INS TX06/0422Z TNM01/0506Z=

    Metar: METAR ETAR 042356Z 34008KT 9999 OVC016 04/03 A3011 RMK AO2A SLP206 60001 T00400031 10066 20040 52018 FZRANO $=

  • Nancy/Ochey (LFSO)

    Taf: TAF AMD LFSO 042306Z 0423/0521 CNL=

    Metar: METAR LFSO 050030Z AUTO 35011KT 8000 OVC010 05/04 Q1020=

  • Liège Bierset (EBLG)

    Taf: TAF EBLG 042301Z 0500/0606 36008KT 6000 BKN015 PROB40 TEMPO 0503/0506 3500 -SHRASN -SHSN SCT004 BKN006 TEMPO 0510/0516 06010KT=

    Metar: METAR EBLG 050020Z 02008KT 350V050 8000 SCT006 BKN012 02/00 Q1022 TEMPO 3500 RADZ=

  • Saint-Dizier (LFSI)

    Taf: TAF LFSI 042000Z 0421/0521 28005KT 9999 BKN010 BKN020 TEMPO 0421/0502 BKN004 BECMG 0504/0507 SCT010 BKN020=

    Metar: METAR LFSI 050030Z AUTO 33006KT 5000 BR OVC010 06/05 Q1021=

  • Maastricht/Zuid Limburg (EHBK)

    Taf: TAF EHBK 042307Z 0500/0606 35008KT 9999 BKN025 BECMG 0502/0505 7000 BKN004 TEMPO 0503/0507 1500 BR -DZ -RASN BKN002 BECMG 0505/0508 03010KT 9999 NSW SCT030 BECMG 0518/0521 07004KT=

    Metar: METAR EHBK 050025Z AUTO 35007KT 320V030 9999 BKN023 OVC026 03/M00 Q1022 NOSIG=

  • Köln/Köln-Bonn (EDDK)

    Taf: TAF COR EDDK 042339Z 0500/0606 35007KT 6000 SCT006 BKN035 TEMPO 0500/0506 BKN012 PROB30 TEMPO 0500/0506 4500 BR BKN006 BECMG 0518/0520 VRB03KT=

    Metar: METAR EDDK 050020Z 34007KT 310V010 9999 SCT012 BKN018 03/01 Q1022 NOSIG=

  • Charleroi (EBCI)

    Taf: TAF EBCI 042301Z 0500/0606 36008KT 7000 BKN015 PROB30 TEMPO 0503/0506 3500 -SHRASN -SHSN SCT004 BKN006 TEMPO 0510/0516 06010KT=

    Metar: METAR EBCI 050020Z 36007KT 9999 FEW012 BKN020 03/01 Q1023 TEMPO BKN012=

  • Wiesbaden (ETOU)

    Taf: TAF AMD ETOU 042149Z 0421/0519 30006KT 8000 -SHRA FEW015 BKN030 610406 QNH3005INS TEMPO 0421/0422 32010G15KT 5000 -SHRA BKN015 BECMG 0501/0502 03009KT 9999 NSW SCT020 BKN030 QNH3011INS TX06/0512Z TN01/0506Z LAST NO AMDS AFT 0421=

    Metar: METAR ETOU 042356Z AUTO 36007KT 9999 FEW015 BKN024 OVC037 04/02 A3011 RMK AO2 CIG 017 RWY07 SLP202 60001 T00360018 10081 20036 52022 $=

  • Karlsruhe/Baden-Baden (EDSB)

    Taf: TAF EDSB 042300Z 0500/0524 25005KT 9999 BKN040 BECMG 0501/0505 01005KT PROB30 TEMPO 0502/0506 4000 -RA BR BKN014 BECMG 0508/0511 02010KT=

    Metar: METAR EDSB 050020Z AUTO 27003KT 240V300 9999 // OVC020/// 07/05 Q1019=

  • Chalons/Vatry (LFOK)

    Taf: TAF LFOK 042300Z 0500/0524 02010KT 9999 BKN007 OVC030 TEMPO 0500/0507 SCT015 BKN030 PROB30 TEMPO 0500/0507 3000 DZRA BR BECMG 0507/0510 BKN025=

    Metar: METAR LFOK 050030Z AUTO 36012KT 5000 BR SCT008 OVC013 05/03 Q1022 TEMPO DZRA SCT015 BKN030=

  • Frankfurt/Main (EDDF)

    Taf: TAF EDDF 042300Z 0500/0606 32008KT 9999 BKN035 PROB30 TEMPO 0500/0502 4000 RADZ BKN014 BECMG 0504/0507 02009KT BECMG 0510/0513 FEW035=

    Metar: METAR EDDF 050020Z 32004KT 290V010 9999 -SHRA FEW008 SCT013TCU BKN040 04/02 Q1020 NOSIG=

  • Brüssel (EBBR)

    Taf: TAF EBBR 042301Z 0500/0606 36008KT 9999 BKN020 PROB30 TEMPO 0502/0504 4500 -SHRA -SHRASN SCT008 BKN012 TEMPO 0509/0516 06010KT=

    Metar: METAR EBBR 050020Z 01006KT 9999 BKN026 03/M00 Q1024 NOSIG=

  • Düsseldorf (EDDL)

    Taf: TAF EDDL 042300Z 0500/0606 35008KT 9999 SCT010 BKN030 TEMPO 0500/0504 BKN010 BECMG 0518/0520 VRB03KT=

    Metar: METAR EDDL 050020Z 32006KT 9999 BKN047 03/M00 Q1022 NOSIG=

  • Luxeuil (LFSX)

    Taf: TAF AMD LFSX 042221Z 0422/0521 CNL=

    Metar: METAR LFSX 050030Z AUTO 00000KT 0300 0250 R11/0350N FG VV/// 04/03 Q1019=

  • Eindhoven (EHEH)

    Taf: TAF EHEH 042325Z 0500/0606 36006KT 9999 BKN028 PROB40 TEMPO 0500/0505 BKN010 TEMPO 0510/0516 03008G18KT=

    Metar: METAR EHEH 050025Z AUTO 34005KT 310V040 9999 FEW025 OVC032 03/M01 Q1023 BLU=

  • Niederrhein (EDLV)

    Taf: TAF EDLV 042300Z NIL=

    Metar: METAR EDLV 050020Z NIL=

  • Dortmund/Wickede (EDLW)

    Taf: TAF EDLW 042300Z NIL=

    Metar: METAR EDLW 050020Z AUTO 29003KT 240V330 9999 // OVC013/// 02/01 Q1021=

  • Stuttgart/Echterdingen (EDDS)

    Taf: TAF EDDS 042300Z 0500/0524 29009KT 9999 BKN040 TEMPO 0500/0510 4000 RADZ BKN012 BECMG 0509/0512 35008KT BECMG 0518/0521 05007KT=

    Metar: METAR EDDS 050020Z 26006KT 9999 SCT014 BKN022 06/05 Q1017=

  • Basel-Mühlhausen (LFSB)

    Taf: TAF LFSB 042300Z 0500/0524 25005KT 9999 FEW030 BKN055 TEMPO 0502/0507 -RA BECMG 0504/0507 34008KT BKN008 BECMG 0509/0511 FEW015 BKN040 TEMPO 0515/0520 -RA BECMG 0520/0523 BKN005 TEMPO 0521/0524 3000 BR BKN004 PROB40 TEMPO 0522/0524 1000 BCFG=

    Metar: METAR LFSB 050030Z AUTO VRB01KT 9000 FEW049 BKN064 OVC094 06/06 Q1019 NOSIG=

  • Lille (LFQQ)

    Taf: TAF LFQQ 042300Z 0500/0606 02010KT 9999 BKN030 PROB30 TEMPO 0500/0505 BKN007=

    Metar: METAR LFQQ 050030Z AUTO 34007KT 9999 FEW026 OVC036 04/00 Q1024 TEMPO BKN007=

  • Paris/Charles de Gaulle (LFPG)

    Taf: TAF LFPG 042300Z 0500/0606 02010KT 9999 BKN012 TX06/0515Z TN01/0524Z BECMG 0500/0502 FEW012 BKN030 PROB30 TEMPO 0500/0509 4000 -RADZ BKN012=

    Metar: METAR LFPG 050030Z 01011KT 310V040 9999 BKN013 BKN020 05/03 Q1023 BECMG FEW013 BKN020=

  • Paderborn/Lippstadt (EDLP)

    Taf: TAF EDLP 042300Z NIL=

    Metar: METAR EDLP NIL=

  • Paris/Le Bourget (LFPB)

    Taf: TAF LFPB 042300Z 0500/0524 02010KT 9999 BKN014 BECMG 0500/0502 FEW014 BKN032 PROB30 TEMPO 0500/0509 4000 -RADZ BKN014=

    Metar: METAR LFPB 050030Z AUTO 01008KT 9999 OVC018 06/03 Q1023 TEMPO 4000 -RADZ BKN014=

  • Rotterdam (EHRD)

    Taf: TAF EHRD 042311Z 0500/0606 02008KT 9999 SCT020 BECMG 0600/0603 VRB03KT=

    Metar: METAR EHRD 050025Z AUTO 02007KT 350V050 9999 BKN021 OVC024 04/00 Q1024 NOSIG=

  • Zürich/Kloten (LSZH)

    Taf: TAF LSZH 050000Z NIL=

    Metar: METAR LSZH 050020Z NIL=

  • Oostende/Intl (EBOS)

    Taf: TAF EBOS 042301Z 0500/0606 04012KT 9999 BKN025=

    Metar: METAR EBOS 050020Z 02009KT 9999 FEW022 BKN036 04/M00 Q1025 NOSIG=

  • Paris/Orly (LFPO)

    Taf: TAF LFPO 042300Z 0500/0606 01008KT 9999 BKN012 BECMG 0508/0510 BKN020 BECMG 0513/0515 CAVOK=

    Metar: METAR LFPO 050030Z 01010KT 9999 BKN015 06/03 Q1023 NOSIG=

  • Beauvais (LFOB)

    Taf: TAF LFOB 042300Z 0500/0524 02010KT 9999 BKN025 PROB30 TEMPO 0500/0509 BKN007=

    Metar: METAR LFOB 050030Z AUTO 02011KT 9999 FEW015 OVC022 04/02 Q1024 TEMPO BKN007=

  • Münster/Intl (EDDG)

    Taf: TAF EDDG 042300Z 0500/0524 35005KT 9999 BKN020 BECMG 0516/0518 VRB02KT=

    Metar: METAR EDDG 050020Z 01008KT 9999 BKN015 03/00 Q1022 NOSIG=

  • Illesheim (ETIK)

    Taf: TAF AMD ETIK 0422/0521 34009KT 4800 -SHRA FEW010 SCT015 OVC025 QNH3000INS TEMPO 0500/0507 3200 -RASN BKN005 BECMG 0509/0510 03009KT 9999 NSW BKN030 QNH3022INS TX06/0422Z TNM01/0502Z LAST NO AMDS AFT 0422 NEXT 0507=

    Metar: METAR ETIK 042356Z AUTO 35007KT 9999 -RA BKN009 BKN020 OVC026 05/04 A3002 RMK AO2 RAE41DZB41E54RAB54 SLP172 P0003 60024 T00530038 10087 20053 53008 $=

  • Duebendorf (LSMD)

    Taf: TAF AMD LSMD 042343Z 0423/0523 29005KT 9999 FEW015 SCT020 BKN040 TEMPO 0423/0515 4000 SHRA BECMG 0513/0516 06008KT=

    Metar: METAR LSMD 050020Z AUTO 11003KT 9999NDV FEW015 BKN043 OVC084 06/05 Q1019 RMK=

  • Villacoublay (LFPV)

    Taf: TAF LFPV 042000Z 0421/0521 36010KT 8000 BKN010 OVC020 TX06/0514Z TN02/0503Z BECMG 0510/0512 SCT030 BECMG 0513/0515 CAVOK=

    Metar: METAR LFPV 050030Z AUTO 01008KT 340V060 9999 BKN013 BKN020 OVC034 05/02 Q1023 NOSIG=

  • Payerne (LSMP)

    Taf: TAF LSMP 041625Z 0417/0523 26003KT CAVOK BECMG 0417/0419 9999 BKN040 PROB30 TEMPO 0419/0423 RA BECMG 0511/0513 04013KT=

    Metar: METAR LSMP 050020Z AUTO 24001KT 8000NDV FEW046 OVC084 05/05 Q1019 RMK=

  • Amsterdam/Schipol (EHAM)

    Taf: TAF EHAM 042311Z 0500/0606 02010KT CAVOK BECMG 0522/0601 VRB03KT=

    Metar: METAR EHAM 050025Z 02008KT 9999 FEW017 02/M00 Q1025 NOSIG=

  • Emmen (LSME)

    Taf: TAF AMD LSME 042343Z 0423/0523 28005KT 9999 FEW015 SCT030 BKN050 TEMPO 0423/0515 4000 SHRA BECMG 0514/0517 06008KT=

    Metar: METAR LSME 050020Z AUTO VRB02KT 9999NDV BKN037 BKN044 OVC071 07/05 Q1019 RMK=

  • Friedrichshafen (EDNY)

    Taf: TAF EDNY 042300Z 0500/0524 26005KT 9999 BKN025 TEMPO 0500/0507 BKN010 BECMG 0510/0512 02007KT=

    Metar: METAR EDNY 050020Z AUTO 22007KT 9999 // FEW006/// BKN009/// OVC043/// 06/05 Q1018=

  • Alpnach (LSMA)

    Taf: TAF AMD LSMA 042343Z 0423/0523 VRB02KT 7000 FEW015 SCT030 BKN050 TEMPO 0423/0518 4000 SHRA BKN012 BECMG 0514/0517 06010KT=

    Metar: METAR LSMA 050020Z AUTO VRB01KT 8000NDV -RA FEW007 BKN045 BKN051 06/05 Q1019 RMK=

  • Meiringen (LSMM)

    Taf: TAF AMD LSMM 042343Z 0423/0523 27005KT 8000 FEW010 SCT015 BKN030 TEMPO 0423/0518 4000 SHRA BKN012 BECMG 0515/0518 07010KT=

    Metar: METAR LSMM 050020Z AUTO 15004KT 9999NDV -RA FEW024 OVC050 05/05 Q1019 RMK=

  • Nürnberg (EDDN)

    Taf: TAF COR EDDN 042351Z 0500/0524 32008KT 9999 SCT006 BKN012 TEMPO 0500/0508 3500 -SNRA BKN006 BECMG 0508/0510 BKN020 BECMG 0512/0514 02005KT=

    Metar: METAR EDDN 050020Z 33009KT 7000 -RADZ BKN007 06/05 Q1015=

  • Rouen (LFOP)

    Taf: TAF LFOP 042300Z NIL=

    Metar: METAR LFOP 050030Z AUTO 02006KT 9999 FEW014 OVC028 05/03 Q1024=

  • Evreux (LFOE)

    Taf: TAF LFOE 042000Z 0421/0521 02005KT 9999 BKN012 OVC025 TEMPO 0422/0508 BKN006 BECMG 0508/0510 04010G20KT SCT016 BKN025=

    Metar: METAR LFOE 050030Z AUTO 03007KT 9999 BKN016 OVC034 05/02 Q1024 TEMPO BKN006=

  • Erfurt/Bindersleben (EDDE)

    Taf: TAF EDDE 042300Z 0500/0524 01007KT 0100 -RA FG BKN001 TEMPO 0500/0510 3000 -SN BR BKN010 BECMG 0510/0512 8000 SCT015 BECMG 0519/0522 24004KT=

    Metar: METAR EDDE 050020Z 34006KT 9999 -SN FEW004 BKN008 BKN036 02/01 Q1017=